Time;durP1;ratioP1;P1;durP2;ratioP2;P2;SDS_P1;SDS_P2;PMS_P1;PMS_P2;Temp;Humidity;BMP_temperature;BMP_pressure;BME280_temperature;BME280_humidity;BME280_pressure;Samples;Min_cycle;Max_cycle;Signal;HPM_P1;HPM_P2
2023/03/06 04:00:14;;;;;;;27.25;17.85;;;1.90;99.90;;;;;;5982844;23;20494;31
2023/03/06 04:02:42;;;;;;;28.10;17.00;;;2.00;99.90;;;;;;4908019;29;20214;-83
2023/03/06 04:05:09;;;;;;;30.13;18.27;;;1.90;99.90;;;;;;4925744;29;20209;-84
2023/03/06 04:07:35;;;;;;;26.63;17.53;;;1.90;99.90;;;;;;4910066;29;20250;-82
2023/03/06 04:10:00;;;;;;;27.73;18.87;;;1.90;99.90;;;;;;4909259;29;20553;-85
2023/03/06 04:12:26;;;;;;;30.23;17.30;;;1.90;99.90;;;;;;4914041;29;20199;-85
2023/03/06 04:14:52;;;;;;;25.80;17.50;;;1.90;99.90;;;;;;4917318;29;20203;-86
2023/03/06 04:17:18;;;;;;;26.70;17.90;;;1.90;99.90;;;;;;4917143;29;20251;-86
2023/03/06 04:19:44;;;;;;;28.43;18.63;;;1.80;99.90;;;;;;4907756;29;20548;-83
2023/03/06 04:22:09;;;;;;;25.23;19.07;;;1.80;99.90;;;;;;4907563;29;20216;-83
2023/03/06 04:24:35;;;;;;;25.27;19.60;;;1.80;99.90;;;;;;4907843;29;20192;-83
2023/03/06 04:27:01;;;;;;;29.90;19.60;;;1.80;99.90;;;;;;4912597;29;20231;-86
2023/03/06 04:29:27;;;;;;;29.80;19.00;;;1.80;99.90;;;;;;4915773;29;20165;-85
2023/03/06 04:31:52;;;;;;;27.20;17.17;;;1.90;99.90;;;;;;4916689;29;20204;-88
2023/03/06 04:34:18;;;;;;;34.07;20.20;;;1.90;99.90;;;;;;4921967;29;20208;-85
2023/03/06 04:36:44;;;;;;;28.93;17.60;;;1.90;99.90;;;;;;4929614;29;20196;-84
2023/03/06 04:39:13;;;;;;;30.07;20.43;;;1.80;99.90;;;;;;4894376;29;20674;-83
2023/03/06 04:41:40;;;;;;;31.70;19.57;;;1.80;99.90;;;;;;4898891;29;20279;-84
2023/03/06 04:44:07;;;;;;;30.77;20.10;;;1.80;99.90;;;;;;4897119;29;20199;-83
2023/03/06 04:46:34;;;;;;;30.33;19.97;;;1.80;99.90;;;;;;4895970;29;20569;-83
2023/03/06 04:48:59;;;;;;;25.73;18.70;;;1.90;99.90;;;;;;4878026;29;20193;-73
2023/03/06 04:51:25;;;;;;;28.17;18.30;;;1.90;99.90;;;;;;4876820;29;20207;-74
2023/03/06 04:53:51;;;;;;;28.03;18.50;;;1.90;99.90;;;;;;4876864;29;20189;-74
2023/03/06 04:56:17;;;;;;;29.93;18.00;;;1.90;99.90;;;;;;4876789;29;20192;-74
2023/03/06 04:58:43;;;;;;;30.60;19.13;;;1.90;99.90;;;;;;4876383;29;20196;-74
2023/03/06 05:01:10;;;;;;;30.07;19.07;;;1.90;99.90;;;;;;4890506;29;20307;-74
2023/03/06 05:03:36;;;;;;;29.53;19.93;;;1.90;99.90;;;;;;4891240;29;20184;-75
2023/03/06 05:06:03;;;;;;;31.97;19.70;;;1.90;99.90;;;;;;4893132;29;20646;-74
2023/03/06 05:08:29;;;;;;;23.93;19.07;;;1.90;99.90;;;;;;4910058;29;20215;-75
2023/03/06 05:11:01;;;;;;;30.83;19.10;;;1.90;99.90;;;;;;4895409;29;20216;-75
2023/03/06 05:13:27;;;;;;;31.30;20.20;;;1.90;99.90;;;;;;4885423;29;20556;-75
2023/03/06 05:15:53;;;;;;;30.00;19.53;;;1.90;99.90;;;;;;4882621;29;20188;-75
2023/03/06 05:18:19;;;;;;;35.00;19.13;;;1.90;99.90;;;;;;4881690;29;20196;-75
2023/03/06 05:20:46;;;;;;;27.57;19.00;;;1.90;99.90;;;;;;4911915;29;20264;-75
2023/03/06 05:23:12;;;;;;;24.13;19.60;;;1.90;99.90;;;;;;4897104;29;20187;-75
2023/03/06 05:25:39;;;;;;;29.97;20.67;;;1.90;99.90;;;;;;4887269;29;20184;-76
2023/03/06 05:28:06;;;;;;;28.03;19.70;;;1.90;99.90;;;;;;4879240;29;20618;-74
2023/03/06 05:30:32;;;;;;;32.43;20.87;;;1.90;99.90;;;;;;4896257;29;20200;-75
2023/03/06 05:32:59;;;;;;;27.90;19.10;;;1.90;99.90;;;;;;4898081;29;20187;-75
2023/03/06 05:35:25;;;;;;;33.00;21.13;;;1.90;99.90;;;;;;4897875;29;20235;-75
2023/03/06 05:37:51;;;;;;;37.60;21.00;;;1.80;99.90;;;;;;4911763;29;20211;-75
2023/03/06 05:40:17;;;;;;;32.00;20.60;;;1.80;99.90;;;;;;4895915;29;20187;-76
2023/03/06 05:42:44;;;;;;;31.17;20.50;;;1.80;99.90;;;;;;4896494;29;20195;-75
2023/03/06 05:45:10;;;;;;;36.70;22.83;;;1.80;99.90;;;;;;4912602;29;20242;-75
2023/03/06 05:47:36;;;;;;;39.70;23.13;;;1.80;99.90;;;;;;4897886;29;20196;-76
2023/03/06 05:50:03;;;;;;;37.30;23.50;;;1.80;99.90;;;;;;4896187;29;20195;-75
2023/03/06 05:52:29;;;;;;;35.40;21.77;;;1.80;99.90;;;;;;4895901;29;20218;-74
2023/03/06 05:54:54;;;;;;;36.30;22.97;;;1.80;99.90;;;;;;4897962;29;20188;-74
2023/03/06 05:57:22;;;;;;;34.30;22.53;;;1.80;99.90;;;;;;4896501;29;20234;-75
2023/03/06 05:59:49;;;;;;;34.93;21.97;;;1.80;99.90;;;;;;4911975;29;20211;-75
2023/03/06 06:02:16;;;;;;;28.77;21.33;;;1.90;99.90;;;;;;4912422;29;20211;-74
2023/03/06 06:04:42;;;;;;;28.33;21.03;;;1.90;99.90;;;;;;4896558;29;20176;-75
2023/03/06 06:07:12;;;;;;;33.83;22.93;;;1.90;99.90;;;;;;4897950;29;20191;-74
2023/03/06 06:09:38;;;;;;;33.07;21.27;;;1.90;99.90;;;;;;4911464;29;20243;-74
2023/03/06 06:12:04;;;;;;;29.73;19.47;;;1.90;99.90;;;;;;4911895;29;20227;-75
2023/03/06 06:14:33;;;;;;;31.00;20.70;;;1.90;99.90;;;;;;4897461;29;20616;-74
2023/03/06 06:16:59;;;;;;;35.17;20.83;;;1.90;99.90;;;;;;4912064;29;20216;-75
2023/03/06 06:19:28;;;;;;;29.63;20.70;;;1.90;99.90;;;;;;4896141;29;20655;-74
2023/03/06 06:21:54;;;;;;;28.60;20.70;;;1.90;99.90;;;;;;4907120;29;20208;-75
2023/03/06 06:24:22;;;;;;;32.17;21.03;;;1.90;99.90;;;;;;4907791;29;20295;-75
2023/03/06 06:26:54;;;;;;;29.07;20.73;;;1.90;99.90;;;;;;4896613;29;20180;-74
2023/03/06 06:29:20;;;;;;;32.30;22.60;;;2.00;99.90;;;;;;4896784;29;20207;-74
2023/03/06 06:31:46;;;;;;;35.93;21.57;;;2.00;99.90;;;;;;4911651;29;20711;-74
2023/03/06 06:34:13;;;;;;;33.67;20.50;;;2.10;99.90;;;;;;4895997;29;20600;-74
2023/03/06 06:36:40;;;;;;;32.33;19.07;;;2.10;99.90;;;;;;4896394;29;20676;-73
2023/03/06 06:39:07;;;;;;;29.67;20.80;;;2.10;99.90;;;;;;4911000;29;20184;-74
2023/03/06 06:41:34;;;;;;;34.43;21.93;;;2.20;99.90;;;;;;4896654;29;20256;-74
2023/03/06 06:43:59;;;;;;;28.23;20.13;;;2.20;99.90;;;;;;4896783;29;20184;-73
2023/03/06 06:46:26;;;;;;;31.57;20.93;;;2.20;99.90;;;;;;4895905;29;20275;-73
2023/03/06 06:48:55;;;;;;;33.97;21.83;;;2.20;99.90;;;;;;4894611;29;20660;-74
2023/03/06 06:51:21;;;;;;;32.33;20.77;;;2.20;99.90;;;;;;4896751;29;20240;-74
2023/03/06 06:53:50;;;;;;;33.33;21.73;;;2.20;99.90;;;;;;4878602;29;20291;-74
2023/03/06 06:56:16;;;;;;;27.70;21.03;;;2.30;99.90;;;;;;4877806;29;20214;-73
2023/03/06 06:58:42;;;;;;;32.87;20.43;;;2.30;99.90;;;;;;4878141;29;20268;-69
2023/03/06 07:01:10;;;;;;;33.73;20.07;;;2.30;99.90;;;;;;4879569;29;20224;-69
2023/03/06 07:03:36;;;;;;;33.77;20.03;;;2.40;99.90;;;;;;4896000;29;20179;-69
2023/03/06 07:06:03;;;;;;;34.97;20.30;;;2.40;99.90;;;;;;4912337;29;20179;-74
2023/03/06 07:08:29;;;;;;;28.80;20.33;;;2.40;99.90;;;;;;4897005;29;20191;-74
2023/03/06 07:10:55;;;;;;;30.33;20.03;;;2.50;99.90;;;;;;4896510;29;20254;-74
2023/03/06 07:13:21;;;;;;;31.33;20.73;;;2.50;99.90;;;;;;4911019;29;20192;-75
2023/03/06 07:15:47;;;;;;;27.70;18.23;;;2.60;99.90;;;;;;4906948;29;20553;-74
2023/03/06 07:18:13;;;;;;;33.43;19.60;;;2.70;99.90;;;;;;4894718;29;20346;-75
2023/03/06 07:20:40;;;;;;;34.53;20.93;;;2.70;99.90;;;;;;4910516;29;20711;-75
2023/03/06 07:23:12;;;;;;;33.20;23.83;;;2.80;99.90;;;;;;4896509;29;20271;-76
2023/03/06 07:25:38;;;;;;;31.00;26.77;;;3.00;99.90;;;;;;4894940;29;20179;-75
2023/03/06 07:28:04;;;;;;;36.70;26.93;;;3.10;99.90;;;;;;4896328;29;20663;-75
2023/03/06 07:30:30;;;;;;;27.13;19.40;;;3.10;99.90;;;;;;4897714;29;20251;-75
2023/03/06 07:32:57;;;;;;;32.27;19.30;;;3.30;99.90;;;;;;4929330;29;20179;-75
2023/03/06 07:35:24;;;;;;;28.40;17.90;;;3.40;99.90;;;;;;4913777;29;20183;-75
2023/03/06 07:37:50;;;;;;;25.50;18.83;;;3.50;99.90;;;;;;4895876;29;20222;-75
2023/03/06 07:40:18;;;;;;;28.90;19.83;;;3.50;99.90;;;;;;4884481;29;20193;-74
2023/03/06 07:42:44;;;;;;;27.60;19.10;;;3.60;99.90;;;;;;4876475;29;20191;-75
2023/03/06 07:45:11;;;;;;;29.37;17.77;;;3.60;99.90;;;;;;4895238;29;20188;-75
2023/03/06 07:47:38;;;;;;;29.77;18.97;;;3.70;99.90;;;;;;4896002;29;20305;-75
2023/03/06 07:50:06;;;;;;;26.20;17.77;;;3.70;99.90;;;;;;4895719;29;20183;-75
2023/03/06 07:52:35;;;;;;;25.80;17.13;;;3.60;99.90;;;;;;4895394;29;20226;-75
2023/03/06 07:55:01;;;;;;;27.60;17.60;;;3.60;99.90;;;;;;4896038;29;20192;-76
2023/03/06 07:57:26;;;;;;;30.40;18.47;;;3.60;99.90;;;;;;4895320;29;20223;-74
2023/03/06 07:59:52;;;;;;;26.67;17.27;;;3.50;99.90;;;;;;4894593;29;20656;-75
2023/03/06 08:02:18;;;;;;;29.23;19.43;;;3.50;99.90;;;;;;4922749;29;20227;-75
2023/03/06 08:04:44;;;;;;;25.87;17.73;;;3.50;99.90;;;;;;4914182;29;20674;-75
2023/03/06 08:07:09;;;;;;;29.13;17.97;;;3.50;99.90;;;;;;4915098;29;20190;-75
2023/03/06 08:09:36;;;;;;;31.70;18.37;;;3.60;99.90;;;;;;4897508;29;20607;-75
2023/03/06 08:12:03;;;;;;;31.20;18.27;;;3.60;99.90;;;;;;4891558;29;20680;-75
2023/03/06 08:14:28;;;;;;;30.83;19.40;;;3.60;99.90;;;;;;4882115;29;20191;-74
2023/03/06 08:16:55;;;;;;;30.00;18.00;;;3.60;99.90;;;;;;4891472;29;20228;-74
2023/03/06 08:19:21;;;;;;;28.07;18.97;;;3.70;99.90;;;;;;4876823;29;20214;-75
2023/03/06 08:21:47;;;;;;;24.73;17.23;;;3.80;99.90;;;;;;4877203;29;20260;-75
2023/03/06 08:24:15;;;;;;;33.47;19.20;;;3.80;99.90;;;;;;4876848;29;20232;-75
2023/03/06 08:26:41;;;;;;;30.73;17.57;;;3.90;99.90;;;;;;4886221;29;20184;-76
2023/03/06 08:29:09;;;;;;;27.43;17.23;;;4.00;99.90;;;;;;4908973;29;20667;-75
2023/03/06 08:31:36;;;;;;;34.87;19.77;;;4.10;99.90;;;;;;4894282;29;20208;-76
2023/03/06 08:34:05;;;;;;;27.63;20.83;;;4.40;99.90;;;;;;4895764;29;20222;-75
2023/03/06 08:36:31;;;;;;;27.67;18.70;;;4.50;99.90;;;;;;4895517;29;20227;-75
2023/03/06 08:38:58;;;;;;;26.37;17.93;;;4.80;99.90;;;;;;4909525;29;20187;-75
2023/03/06 08:41:24;;;;;;;27.67;18.30;;;4.90;99.90;;;;;;4894605;29;20259;-75
2023/03/06 08:43:50;;;;;;;27.37;17.60;;;5.20;99.90;;;;;;4910204;29;20184;-75
2023/03/06 08:46:17;;;;;;;22.67;17.60;;;5.30;99.90;;;;;;4895626;29;20637;-76
2023/03/06 08:48:46;;;;;;;27.07;18.53;;;5.50;99.90;;;;;;4896784;29;20188;-75
2023/03/06 08:51:12;;;;;;;28.03;17.67;;;5.60;99.90;;;;;;4899556;29;20204;-76
2023/03/06 08:53:38;;;;;;;25.23;17.30;;;5.70;99.90;;;;;;4899132;29;20238;-75
2023/03/06 08:56:04;;;;;;;25.97;18.07;;;5.80;99.90;;;;;;4880688;29;20693;-75
2023/03/06 08:58:30;;;;;;;24.90;16.97;;;5.90;99.90;;;;;;4880686;29;20570;-76
2023/03/06 09:00:56;;;;;;;23.77;16.77;;;6.00;99.90;;;;;;4880026;29;20580;-75
2023/03/06 09:03:22;;;;;;;25.50;20.07;;;6.10;99.90;;;;;;4879208;29;20204;-76
2023/03/06 09:05:48;;;;;;;23.47;19.80;;;6.20;99.90;;;;;;4880440;29;20188;-75
2023/03/06 09:08:15;;;;;;;22.93;20.30;;;6.30;99.90;;;;;;4880342;29;20184;-75
2023/03/06 09:10:45;;;;;;;22.27;18.97;;;6.60;99.90;;;;;;4880128;29;20263;-75
2023/03/06 09:13:11;;;;;;;21.93;19.37;;;6.80;99.90;;;;;;4885487;29;20194;-75
2023/03/06 09:15:37;;;;;;;20.27;17.90;;;7.00;99.90;;;;;;4879795;29;20590;-76
2023/03/06 09:18:03;;;;;;;21.30;17.87;;;7.20;99.90;;;;;;4879958;29;20234;-76
2023/03/06 09:20:29;;;;;;;20.20;14.67;;;7.50;99.90;;;;;;4896439;29;20210;-75
2023/03/06 09:22:54;;;;;;;15.23;12.20;;;7.90;99.90;;;;;;4897978;29;20180;-76
2023/03/06 09:25:22;;;;;;;18.20;12.50;;;8.10;99.90;;;;;;4913370;29;20203;-76
2023/03/06 09:27:49;;;;;;;18.27;11.73;;;8.50;99.90;;;;;;4898304;29;20199;-76
2023/03/06 09:30:16;;;;;;;14.60;11.57;;;8.70;99.90;;;;;;4912799;29;20187;-76
2023/03/06 09:32:42;;;;;;;13.73;11.67;;;8.90;99.90;;;;;;4907671;29;20833;-73
2023/03/06 09:35:09;;;;;;;12.77;11.17;;;8.80;99.90;;;;;;4910797;29;20196;-76
2023/03/06 09:37:38;;;;;;;10.67;9.47;;;8.30;99.90;;;;;;4907413;29;20207;-75
2023/03/06 09:40:05;;;;;;;10.70;9.60;;;7.60;99.90;;;;;;4899863;29;20249;-75
2023/03/06 09:42:32;;;;;;;10.30;9.27;;;6.60;99.90;;;;;;4897557;29;20262;-76
2023/03/06 09:45:00;;;;;;;13.03;11.70;;;6.00;99.90;;;;;;4898041;29;20179;-75
2023/03/06 09:47:46;;;;;;;14.27;12.90;;;6.00;99.90;;;;;;4893435;29;20193;-76
2023/03/06 09:50:50;;;;;;;16.87;15.50;;;5.80;99.90;;;;;;4878641;29;20192;-76
2023/03/06 09:53:24;;;;;;;17.77;16.50;;;5.80;99.90;;;;;;4879554;29;20188;-76
2023/03/06 09:56:02;;;;;;;18.30;16.87;;;5.70;99.90;;;;;;4893622;29;20298;-75
2023/03/06 09:58:29;;;;;;;20.70;15.97;;;5.60;99.90;;;;;;4878060;29;20657;-76
2023/03/06 10:01:23;;;;;;;17.60;16.17;;;5.50;99.90;;;;;;4891645;29;20764;-76
2023/03/06 10:03:52;;;;;;;13.90;12.50;;;5.40;99.90;;;;;;4897932;29;20641;-76
2023/03/06 10:06:28;;;;;;;13.80;12.53;;;5.50;99.90;;;;;;4897986;29;20192;-75
2023/03/06 10:09:02;;;;;;;13.37;12.17;;;5.50;99.90;;;;;;4897750;29;20220;-76
2023/03/06 10:11:43;;;;;;;14.13;12.70;;;5.50;99.90;;;;;;4896213;29;20207;-75
2023/03/06 10:14:28;;;;;;;16.00;11.27;;;5.40;99.90;;;;;;4897076;29;20547;-76
2023/03/06 10:16:54;;;;;;;13.93;10.83;;;5.50;99.90;;;;;;4927704;23;20222;-73
2023/03/06 10:19:21;;;;;;;14.80;12.87;;;5.60;99.90;;;;;;4944890;29;20654;-73
2023/03/06 10:22:14;;;;;;;17.20;15.80;;;5.60;99.90;;;;;;4935913;29;20182;-74
2023/03/06 10:24:47;;;;;;;16.93;15.37;;;5.40;99.90;;;;;;4935522;29;20186;-74
2023/03/06 10:27:54;;;;;;;13.13;11.97;;;5.40;99.90;;;;;;4927040;29;20207;-74
2023/03/06 10:30:26;;;;;;;15.80;14.30;;;5.80;99.90;;;;;;4863776;29;20196;-74
2023/03/06 10:33:15;;;;;;;16.90;15.57;;;5.90;99.90;;;;;;4873886;29;20200;-74
2023/03/06 10:35:53;;;;;;;16.30;15.03;;;6.00;99.90;;;;;;4900715;29;20282;-74
2023/03/06 10:38:25;;;;;;;17.77;16.17;;;6.20;99.90;;;;;;4915715;29;20222;-75
2023/03/06 10:41:23;;;;;;;16.23;14.83;;;6.40;99.90;;;;;;4915937;29;20277;-74
2023/03/06 10:44:03;;;;;;;14.77;12.00;;;6.70;99.90;;;;;;4916081;29;20557;-74
2023/03/06 10:46:38;;;;;;;11.00;9.90;;;6.90;99.90;;;;;;4914650;29;20191;-74
2023/03/06 10:49:48;;;;;;;10.37;9.27;;;6.80;99.90;;;;;;4911161;29;20210;-74
2023/03/06 10:52:14;;;;;;;10.57;8.87;;;7.00;99.90;;;;;;4916148;29;20210;-74
2023/03/06 10:54:43;;;;;;;11.67;8.67;;;7.40;99.90;;;;;;4917506;29;20678;-74
2023/03/06 10:57:29;;;;;;;10.80;8.70;;;7.60;99.90;;;;;;4914836;29;20218;-73
2023/03/06 11:00:22;;;;;;;10.13;9.10;;;7.40;99.90;;;;;;4914265;29;20187;-74
2023/03/06 11:03:15;;;;;;;15.13;10.83;;;7.20;99.90;;;;;;4914427;29;20193;-73
2023/03/06 11:06:03;;;;;;;11.10;9.83;;;7.20;99.90;;;;;;4915826;29;20191;-74
2023/03/06 11:08:30;;;;;;;11.73;9.67;;;7.00;99.90;;;;;;4908841;29;20250;-73
2023/03/06 11:11:02;;;;;;;10.63;9.53;;;7.00;99.90;;;;;;4924368;29;20186;-73
2023/03/06 11:13:31;;;;;;;11.93;10.80;;;6.80;99.90;;;;;;4923078;29;20233;-73
2023/03/06 11:16:17;;;;;;;11.00;9.93;;;6.70;99.90;;;;;;4914540;29;20191;-73
2023/03/06 11:18:59;;;;;;;11.63;10.43;;;6.80;99.90;;;;;;4913560;29;20219;-74
2023/03/06 11:21:31;;;;;;;11.80;9.37;;;7.10;99.90;;;;;;4914434;29;20198;-74
2023/03/06 11:24:05;;;;;;;12.90;11.03;;;7.40;99.90;;;;;;4912037;29;20183;-75
2023/03/06 11:26:42;;;;;;;12.50;11.37;;;7.50;99.90;;;;;;4895942;29;20187;-74
2023/03/06 11:29:25;;;;;;;12.50;10.60;;;7.30;99.90;;;;;;4894966;29;20358;-73
2023/03/06 11:31:55;;;;;;;11.13;10.13;;;6.90;99.90;;;;;;4896300;29;20195;-74
2023/03/06 11:34:30;;;;;;;13.43;12.10;;;6.70;99.90;;;;;;4895944;29;20279;-74
2023/03/06 11:37:14;;;;;;;12.90;11.60;;;6.70;99.90;;;;;;4896303;29;20593;-73
2023/03/06 11:39:43;;;;;;;11.33;10.33;;;6.70;99.90;;;;;;4895519;29;20215;-74
2023/03/06 11:42:24;;;;;;;12.90;11.67;;;6.60;99.90;;;;;;4913423;29;20183;-73
2023/03/06 11:45:22;;;;;;;13.20;10.80;;;6.60;99.90;;;;;;4914777;29;20219;-73
2023/03/06 11:48:07;;;;;;;10.93;9.83;;;6.80;99.90;;;;;;4914483;29;20206;-74
2023/03/06 11:50:36;;;;;;;11.73;10.60;;;7.10;99.90;;;;;;4913362;29;20198;-74
2023/03/06 11:53:05;;;;;;;10.03;9.10;;;7.40;99.90;;;;;;4913118;29;20214;-74
2023/03/06 11:55:34;;;;;;;10.97;9.90;;;7.40;99.90;;;;;;4913257;29;20187;-73
2023/03/06 11:58:37;;;;;;;11.37;10.03;;;7.30;99.90;;;;;;4914874;29;20645;-75
2023/03/06 12:01:08;;;;;;;10.53;9.53;;;7.40;99.90;;;;;;4914301;29;20687;-73
2023/03/06 12:04:16;;;;;;;12.17;10.90;;;7.70;99.90;;;;;;4914074;29;20183;-74
2023/03/06 12:06:54;;;;;;;11.23;10.23;;;7.70;99.90;;;;;;4912139;29;20838;-74
2023/03/06 12:09:32;;;;;;;11.80;10.60;;;7.70;99.90;;;;;;4914060;29;20254;-74
2023/03/06 12:12:04;;;;;;;11.97;10.77;;;8.10;99.90;;;;;;4923670;29;20179;-73
2023/03/06 12:14:32;;;;;;;10.33;9.33;;;8.40;99.90;;;;;;4918644;29;20199;-74
2023/03/06 12:17:02;;;;;;;9.70;8.80;;;8.20;99.90;;;;;;4913378;29;20290;-74
2023/03/06 12:19:28;;;;;;;10.03;9.23;;;7.90;99.90;;;;;;4914206;29;20539;-74
2023/03/06 12:22:31;;;;;;;10.43;9.43;;;7.70;99.90;;;;;;4914313;29;20273;-74
2023/03/06 12:25:16;;;;;;;10.67;9.57;;;7.80;99.90;;;;;;4903860;29;20666;-75
2023/03/06 12:28:02;;;;;;;11.73;10.53;;;7.70;99.90;;;;;;4918411;29;20291;-75
2023/03/06 12:30:34;;;;;;;11.87;10.73;;;7.90;99.90;;;;;;4916627;29;20195;-75
2023/03/06 12:33:11;;;;;;;13.33;10.50;;;8.00;99.90;;;;;;4917528;29;20205;-75
2023/03/06 12:36:11;;;;;;;10.20;9.27;;;8.20;99.90;;;;;;4916934;29;20223;-76
2023/03/06 12:39:00;;;;;;;10.53;9.43;;;8.20;99.90;;;;;;4916086;29;20211;-74
2023/03/06 12:41:37;;;;;;;10.73;9.83;;;8.00;99.90;;;;;;4918360;29;20186;-74
2023/03/06 12:44:28;;;;;;;10.20;9.20;;;7.80;99.90;;;;;;4917441;29;20229;-74
2023/03/06 12:46:57;;;;;;;10.70;9.70;;;7.80;99.90;;;;;;4917233;29;20229;-74
2023/03/06 12:49:31;;;;;;;10.00;9.10;;;7.90;99.90;;;;;;4917831;29;20191;-74
2023/03/06 12:51:59;;;;;;;10.47;9.50;;;8.10;99.90;;;;;;4905975;29;20188;-74
2023/03/06 12:54:29;;;;;;;11.23;9.93;;;8.00;99.90;;;;;;4913119;29;20221;-74
2023/03/06 12:56:56;;;;;;;10.77;9.77;;;8.10;99.90;;;;;;4917999;29;20776;-75
2023/03/06 12:59:35;;;;;;;10.40;9.50;;;8.20;99.90;;;;;;4917743;29;20183;-75
2023/03/06 13:02:07;;;;;;;11.57;10.40;;;8.30;99.90;;;;;;4917115;29;20183;-75
2023/03/06 13:04:52;;;;;;;11.23;10.20;;;8.00;99.90;;;;;;4916552;29;20255;-74
2023/03/06 13:07:46;;;;;;;9.90;8.93;;;8.10;99.90;;;;;;4901771;29;20211;-74
2023/03/06 13:10:26;;;;;;;10.33;9.33;;;8.00;99.90;;;;;;4898510;29;20196;-75
2023/03/06 13:13:03;;;;;;;11.90;10.50;;;7.90;99.90;;;;;;4897965;29;20183;-75
2023/03/06 13:16:03;;;;;;;11.40;10.27;;;7.80;99.90;;;;;;4899847;29;20640;-76
2023/03/06 13:18:32;;;;;;;10.87;9.77;;;7.70;99.90;;;;;;4898707;29;20235;-76
2023/03/06 13:20:58;;;;;;;11.30;10.10;;;7.60;99.90;;;;;;4917925;29;20193;-77
2023/03/06 13:23:34;;;;;;;11.53;10.13;;;7.60;99.90;;;;;;4919693;29;20179;-74
2023/03/06 13:26:01;;;;;;;11.80;10.60;;;7.30;99.90;;;;;;4917628;29;20710;-74
2023/03/06 13:28:39;;;;;;;11.37;10.47;;;7.20;99.90;;;;;;4917249;29;20718;-74
2023/03/06 13:31:06;;;;;;;13.57;12.37;;;7.10;99.90;;;;;;4913047;29;20179;-75
2023/03/06 13:33:33;;;;;;;12.43;11.33;;;7.00;99.90;;;;;;4916838;29;20191;-75
2023/03/06 13:36:28;;;;;;;12.23;11.13;;;6.90;99.90;;;;;;4914853;29;20258;-75
2023/03/06 13:39:00;;;;;;;12.73;11.63;;;7.00;99.90;;;;;;4916364;29;20562;-75
2023/03/06 13:41:40;;;;;;;13.63;12.33;;;7.30;99.90;;;;;;4913522;29;20183;-73
2023/03/06 13:44:24;;;;;;;13.90;12.50;;;7.50;99.90;;;;;;4917241;29;20555;-73
2023/03/06 13:46:58;;;;;;;14.57;13.07;;;7.50;99.90;;;;;;4916203;29;20207;-73
2023/03/06 13:49:24;;;;;;;15.00;13.67;;;7.40;99.90;;;;;;4916468;29;20806;-73
2023/03/06 13:51:50;;;;;;;14.57;13.03;;;7.30;99.90;;;;;;4915946;29;20179;-73
2023/03/06 13:54:40;;;;;;;14.97;13.47;;;7.20;99.90;;;;;;4916712;29;20564;-73
2023/03/06 13:57:17;;;;;;;12.77;11.47;;;7.20;99.90;;;;;;4916716;29;20226;-73
2023/03/06 14:00:13;;;;;;;12.63;11.33;;;7.10;99.90;;;;;;4916545;29;20677;-73
2023/03/06 14:02:57;;;;;;;12.93;10.57;;;7.20;99.90;;;;;;4898161;29;20238;-73
2023/03/06 14:05:31;;;;;;;12.10;10.93;;;7.40;99.90;;;;;;4902739;29;20316;-73
2023/03/06 14:08:23;;;;;;;14.43;13.00;;;7.60;99.90;;;;;;4899058;29;20315;-73
2023/03/06 14:11:02;;;;;;;12.47;11.27;;;7.80;99.90;;;;;;4892894;29;20204;-74
2023/03/06 14:13:34;;;;;;;12.17;11.03;;;7.80;99.90;;;;;;4897502;29;20187;-73
2023/03/06 14:16:00;;;;;;;21.20;12.20;;;7.70;99.90;;;;;;4897476;29;20195;-73
2023/03/06 14:18:37;;;;;;;13.80;12.43;;;7.60;99.90;;;;;;4915301;29;20266;-73
2023/03/06 14:21:12;;;;;;;12.40;11.20;;;7.50;99.90;;;;;;4916442;29;20282;-73
2023/03/06 14:23:43;;;;;;;14.20;13.07;;;7.40;99.90;;;;;;4915400;29;20644;-74
2023/03/06 14:26:19;;;;;;;14.83;13.40;;;7.40;99.90;;;;;;4915435;29;20678;-74
2023/03/06 14:29:00;;;;;;;15.00;13.63;;;7.40;99.90;;;;;;4910023;29;20713;-74
2023/03/06 14:31:35;;;;;;;12.90;11.57;;;7.30;99.90;;;;;;4913859;29;20688;-73
2023/03/06 14:34:04;;;;;;;11.43;10.23;;;7.20;99.90;;;;;;4916423;29;20537;-73
2023/03/06 14:36:49;;;;;;;19.33;14.53;;;7.10;99.90;;;;;;4913776;29;20742;-73
2023/03/06 14:39:31;;;;;;;13.23;11.80;;;7.10;99.90;;;;;;4916621;29;20187;-73
2023/03/06 14:42:18;;;;;;;10.93;9.93;;;7.10;99.90;;;;;;4918652;29;20187;-74
2023/03/06 14:44:46;;;;;;;10.73;9.67;;;7.20;99.90;;;;;;4896162;29;20176;-74
2023/03/06 14:47:26;;;;;;;9.50;8.60;;;7.10;99.90;;;;;;4895849;29;20212;-73
2023/03/06 14:50:18;;;;;;;11.10;10.10;;;6.90;99.90;;;;;;4912080;29;20277;-73
2023/03/06 14:52:44;;;;;;;10.57;9.67;;;6.90;99.90;;;;;;4902364;29;20191;-73
2023/03/06 14:55:16;;;;;;;10.00;9.10;;;6.90;99.90;;;;;;4895615;29;20271;-73
2023/03/06 14:57:42;;;;;;;11.03;9.47;;;6.80;99.90;;;;;;4908865;29;20239;-73
2023/03/06 15:00:17;;;;;;;9.97;9.07;;;6.80;99.90;;;;;;4915316;29;20330;-74
2023/03/06 15:02:43;;;;;;;10.30;9.40;;;6.70;99.90;;;;;;4912327;29;20274;-73
2023/03/06 15:05:26;;;;;;;9.63;8.83;;;6.70;99.90;;;;;;4915388;29;20562;-73
2023/03/06 15:07:55;;;;;;;10.53;9.37;;;6.70;99.90;;;;;;4913916;29;20203;-73
2023/03/06 15:10:30;;;;;;;11.13;10.13;;;6.70;99.90;;;;;;4913878;29;20277;-75
2023/03/06 15:13:17;;;;;;;10.10;9.17;;;6.70;99.90;;;;;;4913842;29;20271;-74
2023/03/06 15:15:56;;;;;;;10.93;8.70;;;6.60;99.90;;;;;;4914103;29;20219;-74
2023/03/06 15:18:37;;;;;;;10.93;9.90;;;6.60;99.90;;;;;;4914216;29;20628;-73
2023/03/06 15:21:18;;;;;;;10.20;9.30;;;6.60;99.90;;;;;;4916367;29;20178;-74
2023/03/06 15:23:49;;;;;;;9.80;8.90;;;6.70;99.90;;;;;;4915946;29;20202;-73
2023/03/06 15:26:28;;;;;;;10.00;9.00;;;6.70;99.90;;;;;;4899034;29;20220;-73
2023/03/06 15:28:55;;;;;;;10.10;9.20;;;6.70;99.90;;;;;;4896344;29;20216;-74
2023/03/06 15:31:23;;;;;;;10.90;9.83;;;6.60;99.90;;;;;;4897471;29;20217;-74
2023/03/06 15:34:10;;;;;;;10.73;9.73;;;6.50;99.90;;;;;;4915580;29;20618;-77
2023/03/06 15:36:48;;;;;;;10.63;9.40;;;6.50;99.90;;;;;;4914880;29;20306;-76
2023/03/06 15:39:31;;;;;;;10.60;9.47;;;6.60;99.90;;;;;;4909319;29;20182;-75
2023/03/06 15:42:02;;;;;;;10.80;9.80;;;6.60;99.90;;;;;;4895913;29;20191;-76
2023/03/06 15:44:31;;;;;;;10.20;9.30;;;6.60;99.90;;;;;;4895887;29;20667;-76
2023/03/06 15:46:58;;;;;;;10.40;9.20;;;6.60;99.90;;;;;;4895987;29;20900;-75
2023/03/06 15:49:24;;;;;;;10.03;9.03;;;6.50;99.90;;;;;;4894739;29;20183;-78
2023/03/06 15:51:50;;;;;;;10.63;9.63;;;6.50;99.90;;;;;;4895454;29;20191;-78
2023/03/06 15:54:16;;;;;;;9.27;8.37;;;6.50;99.90;;;;;;4900254;29;20230;-77
2023/03/06 15:56:43;;;;;;;11.07;9.33;;;6.40;99.90;;;;;;4918363;29;20222;-78
2023/03/06 15:59:20;;;;;;;8.13;7.53;;;6.40;99.90;;;;;;4936005;28;20231;-78
2023/03/06 16:01:46;;;;;;;10.07;8.33;;;6.20;99.90;;;;;;4917162;29;20213;-79
2023/03/06 16:04:12;;;;;;;8.70;7.80;;;6.20;99.90;;;;;;4915079;29;20274;-80
2023/03/06 16:06:38;;;;;;;10.57;9.57;;;6.10;99.90;;;;;;4914943;29;20195;-79
2023/03/06 16:09:04;;;;;;;9.77;8.77;;;6.10;99.90;;;;;;4906034;29;20188;-78
2023/03/06 16:11:32;;;;;;;10.17;9.17;;;6.10;99.90;;;;;;4909146;29;20196;-79
2023/03/06 16:14:00;;;;;;;10.70;9.37;;;6.10;99.90;;;;;;4894804;29;20184;-75
2023/03/06 16:16:35;;;;;;;9.87;8.97;;;6.10;99.90;;;;;;4894375;29;20215;-75
2023/03/06 16:19:02;;;;;;;9.70;8.83;;;6.00;99.90;;;;;;4949047;23;20261;-72
2023/03/06 16:21:28;;;;;;;10.60;8.90;;;6.00;99.90;;;;;;4932058;29;20205;-73
2023/03/06 16:23:54;;;;;;;8.73;7.93;;;5.90;99.90;;;;;;4932640;29;20217;-72
2023/03/06 16:26:28;;;;;;;10.20;9.13;;;5.90;99.90;;;;;;4931673;29;20258;-72
2023/03/06 16:28:54;;;;;;;11.00;9.20;;;5.90;99.90;;;;;;4930736;29;20766;-73
2023/03/06 16:31:20;;;;;;;18.67;13.87;;;5.80;99.90;;;;;;4932669;29;20329;-71
2023/03/06 16:33:45;;;;;;;36.17;22.10;;;5.90;99.90;;;;;;4932600;29;20186;-72
2023/03/06 16:36:18;;;;;;;10.03;8.97;;;5.80;99.90;;;;;;4931882;29;20179;-73
2023/03/06 16:38:44;;;;;;;10.83;9.67;;;5.80;99.90;;;;;;4932249;29;20223;-72
2023/03/06 16:41:10;;;;;;;10.90;8.87;;;5.70;99.90;;;;;;4932694;29;20182;-73
2023/03/06 16:43:35;;;;;;;10.73;9.73;;;5.60;99.90;;;;;;4933226;29;20192;-73
2023/03/06 16:46:06;;;;;;;12.80;11.67;;;5.60;99.90;;;;;;4932959;29;20183;-73
2023/03/06 16:48:32;;;;;;;14.37;13.27;;;5.50;99.90;;;;;;4932230;29;20219;-73
2023/03/06 16:50:58;;;;;;;11.77;10.67;;;5.30;99.90;;;;;;4929564;29;20178;-73
2023/03/06 16:53:24;;;;;;;11.40;9.40;;;5.20;99.90;;;;;;4933070;29;20253;-73
2023/03/06 16:55:50;;;;;;;11.23;9.60;;;5.10;99.90;;;;;;4931555;29;20178;-73
2023/03/06 16:58:16;;;;;;;11.70;10.10;;;5.00;99.90;;;;;;4932610;29;20221;-73
2023/03/06 17:00:42;;;;;;;14.43;13.13;;;5.00;99.90;;;;;;4931060;29;20186;-74
2023/03/06 17:03:08;;;;;;;18.87;17.07;;;5.00;99.90;;;;;;4930413;29;20282;-74